NY/NJ Local METAR Reports

No Warnings, Watches, or Advisories
KNYC - NYC/Central Park, NY, USA
Distance from station: NE 4mi, 7km
Updated: 04/16/2024 11:51am
Clear
Clear
 Wind from varies
Wind: varies 3 mph , 6 km/h
Temperature: 66°F , 19°C
Dew Point: 28°F , -2°C
Humidity: 24%
Barometer: 30.17 inHg , 1021.7 hPa
Clouds: Clear
Visibility: 10 miles , 16 km
2024/04/16 15:51 KNYC 161551Z AUTO VRB03KT 10SM CLR 19/M02 A3017 RMK AO2 SLP208 T01941022 $
KEWR - Newark, NJ, USA
Distance from station: WSW 8mi, 13km
Updated: 04/16/2024 11:51am
Few Clouds
Few Clouds
 Wind from NNW
Wind: NNW 9 mph , 15 km/h, Gust: 23 mph , 37 km/h
Temperature: 66°F , 19°C
Dew Point: 34°F , 1°C
Humidity: 30%
Barometer: 30.15 inHg , 1021 hPa
Clouds: Few Clouds
Visibility: 10 miles , 16 km
Cloud details: Few Clouds 5000 ft
Few Clouds 25000 ft
2024/04/16 15:51 KEWR 161551Z 33008G20KT 10SM FEW050 FEW250 19/01 A3015 RMK AO2 PK WND 31028/1535 SLP209 T01890006 $
 
KLGA - NYC/La Guardia, NY, USA
Distance from station: ENE 8mi, 13km
Updated: 04/16/2024 12:51pm
Few Clouds
Few Clouds
 Wind from NW
Wind: NW 10 mph , 17 km/h, Gust: 22 mph , 35 km/h
Temperature: 64°F , 18°C
Dew Point: 30°F , -1°C
Humidity: 28%
Barometer: 30.13 inHg , 1020.3 hPa
Clouds: Few Clouds
Visibility: 10 miles , 16 km
Cloud details: Few Clouds 6000 ft
Few Clouds 25000 ft
2024/04/16 16:51 KLGA 161651Z 31009G19KT 10SM FEW060 FEW250 18/M01 A3013 RMK AO2 SLP201 T01781011 $
KTEB - Teterboro, NJ, USA
Distance from station: N 9mi, 14km
Updated: 04/16/2024 12:51pm
Clear
Clear
 Wind from NNW
Wind: NNW 14 mph , 22 km/h, Gust: 22 mph , 35 km/h
Temperature: 64°F , 18°C
Dew Point: 30°F , -1°C
Humidity: 28%
Barometer: 30.12 inHg , 1020 hPa
Clouds: Clear
Visibility: 10 miles , 16 km
2024/04/16 16:51 KTEB 161651Z 33012G19KT 10SM CLR 18/M01 A3012 RMK AO2 SLP198 T01831006
 
KJFK - NYC/Jfk Arpt, NY, USA
Distance from station: ESE 16mi, 25km
Updated: 04/16/2024 12:51pm
Few Clouds
Few Clouds
 Wind from W
Wind: W 15 mph , 24 km/h, Gust: 23 mph , 37 km/h
Temperature: 66°F , 19°C
Dew Point: 34°F , 1°C
Humidity: 30%
Barometer: 30.13 inHg , 1020.3 hPa
Clouds: Few Clouds
Visibility: 10 miles , 16 km
Cloud details: Few Clouds 7000 ft
Few Clouds 25000 ft
2024/04/16 16:51 KJFK 161651Z 28013G20KT 10SM FEW070 FEW250 19/01 A3013 RMK AO2 SLP203 T01940006
KCDW - Caldwell, NJ, USA
Distance from station: NW 16mi, 26km
Updated: 04/16/2024 11:53am
Clear
Clear
 Wind from NW
Wind: NW 9 mph , 15 km/h, Gust: 20 mph , 31 km/h
Temperature: 64°F , 18°C
Dew Point: 27°F , -3°C
Humidity: 24%
Barometer: 30.16 inHg , 1021.3 hPa
Clouds: Clear
Visibility: 10 miles , 16 km
2024/04/16 15:53 KCDW 161553Z 32008G17KT 10SM CLR 18/M03 A3016 RMK AO2 SLP217 T01831028
 
KMMU - Morristown Muni, NJ, USA
Distance from station: W 20mi, 33km
Updated: 04/16/2024 12:45pm
Few Clouds
Few Clouds
 Wind from NNW
Wind: NNW 13 mph , 20 km/h, Gust: 18 mph , 30 km/h
Temperature: 66°F , 19°C
Dew Point: 30°F , -1°C
Humidity: 26%
Barometer: 30.14 inHg , 1020.7 hPa
Clouds: Few Clouds
Visibility: 10 miles , 16 km
Cloud details: Few Clouds 25000 ft
2024/04/16 16:45 KMMU 161645Z 33011G16KT 10SM FEW250 19/M01 A3014
KHPN - White Plains, NY, USA
Distance from station: NE 28mi, 46km
Updated: 04/16/2024 11:56am
Few Clouds
Few Clouds
 Wind from W
Wind: W 12 mph , 19 km/h, Gust: 22 mph , 35 km/h
Temperature: 61°F , 16°C
Dew Point: 34°F , 1°C
Humidity: 36%
Barometer: 30.14 inHg , 1020.7 hPa
Clouds: Few Clouds
Visibility: 10 miles , 16 km
Cloud details: Few Clouds 4000 ft
2024/04/16 15:56 KHPN 161556Z 28010G19KT 10SM FEW040 16/01 A3014 RMK AO2 SLP205 T01610006
 
KFRG - Farmingdale, NY, USA
Distance from station: E 32mi, 52km
Updated: 04/16/2024 11:53am
Clear
Clear
 Wind from NNW
Wind: NNW 9 mph , 15 km/h
Temperature: 64°F , 18°C
Dew Point: 32°F , 0°C
Humidity: 30%
Barometer: 30.13 inHg , 1020.3 hPa
Clouds: Clear
Visibility: 10 miles , 16 km
2024/04/16 15:53 KFRG 161553Z 33008KT 10SM CLR 18/00 A3013 RMK AO2 SLP203 T01780000
KSMQ - Somerville, NJ, USA
Distance from station: WSW 34mi, 55km
Updated: 04/16/2024 11:53am
Clear
Clear
 Wind from NNW
Wind: NNW 13 mph , 20 km/h, Gust: 22 mph , 35 km/h
Temperature: 64°F , 18°C
Dew Point: 32°F , 0°C
Humidity: 30%
Barometer: 30.14 inHg , 1020.7 hPa
Clouds: Clear
Visibility: 10 miles , 16 km
2024/04/16 15:53 KSMQ 161553Z AUTO 33011G19KT 10SM CLR 18/00 A3014 RMK AO2 SLP207 T01830000
 
KBLM - Belmar/Farmdale, NJ, USA
Distance from station: S 40mi, 64km
Updated: 04/16/2024 11:56am
Clear
Clear
 Wind from NNW
Wind: NNW 15 mph , 24 km/h, Gust: 20 mph , 31 km/h
Temperature: 66°F , 19°C
Dew Point: 28°F , -2°C
Humidity: 24%
Barometer: 30.16 inHg , 1021.3 hPa
Clouds: Clear
Visibility: 10 miles , 16 km
2024/04/16 15:56 KBLM 161556Z AUTO 33013G17KT 10SM CLR 19/M02 A3016 RMK AO2 SLP214 T01891017
K12N - Andover, NJ, USA
Distance from station: WNW 41mi, 67km
Updated: 04/16/2024 11:54am

 Wind from varies
Wind: varies 5 mph , 7 km/h
Temperature: 63°F , 17°C
Dew Point: 30°F , -1°C
Humidity: 30%
Barometer: 30.15 inHg , 1021 hPa
2024/04/16 15:54 K12N 161554Z AUTO VRB04KT 17/M01 A3015 RMK AO1 SLP210 T01721006
 
KFWN - Sussex, NJ, USA
Distance from station: NW 45mi, 72km
Updated: 04/16/2024 11:53am
Clear
Clear
 Wind from NW
Wind: NW 9 mph , 15 km/h, Gust: 22 mph , 35 km/h
Temperature: 63°F , 17°C
Dew Point: 30°F , -1°C
Humidity: 30%
Barometer: 30.16 inHg , 1021.3 hPa
Clouds: Clear
Visibility: 10 miles , 16 km
2024/04/16 15:53 KFWN 161553Z AUTO 31008G19KT 10SM CLR 17/M01 A3016 RMK AO2 SLP211 T01721006
KISP - Islip, NY, USA
Distance from station: E 49mi, 79km
Updated: 04/16/2024 11:56am
Few Clouds
Few Clouds
 Wind from NW
Wind: NW 16 mph , 26 km/h
Temperature: 64°F , 18°C
Dew Point: 30°F , -1°C
Humidity: 28%
Barometer: 30.12 inHg , 1020 hPa
Clouds: Few Clouds
Visibility: 10 miles , 16 km
Cloud details: Few Clouds 6500 ft
Few Clouds 25000 ft
2024/04/16 15:56 KISP 161556Z 31014KT 10SM FEW065 FEW250 18/M01 A3012 RMK AO2 SLP200 T01781011